sensor_id;sensor_type;location;lat;lon;timestamp;P1;durP1;ratioP1;P2;durP2;ratioP2
18526;SDS011;9393;42.158;24.748;2022-10-31T00:02:19;5.27;;;2.67;;
18526;SDS011;9393;42.158;24.748;2022-10-31T00:05:32;6.00;;;3.37;;
18526;SDS011;9393;42.158;24.748;2022-10-31T00:08:40;8.67;;;2.90;;
18526;SDS011;9393;42.158;24.748;2022-10-31T00:11:51;7.90;;;2.93;;
18526;SDS011;9393;42.158;24.748;2022-10-31T00:14:59;5.93;;;2.57;;
18526;SDS011;9393;42.158;24.748;2022-10-31T00:18:04;7.67;;;2.77;;
18526;SDS011;9393;42.158;24.748;2022-10-31T00:21:10;6.50;;;2.70;;
18526;SDS011;9393;42.158;24.748;2022-10-31T00:24:14;7.83;;;2.80;;
18526;SDS011;9393;42.158;24.748;2022-10-31T00:27:19;4.80;;;2.67;;
18526;SDS011;9393;42.158;24.748;2022-10-31T00:30:24;9.50;;;3.50;;
18526;SDS011;9393;42.158;24.748;2022-10-31T00:33:29;11.27;;;3.20;;
18526;SDS011;9393;42.158;24.748;2022-10-31T00:36:33;4.93;;;2.60;;
18526;SDS011;9393;42.158;24.748;2022-10-31T00:39:37;6.97;;;3.27;;
18526;SDS011;9393;42.158;24.748;2022-10-31T00:42:42;7.40;;;3.00;;
18526;SDS011;9393;42.158;24.748;2022-10-31T00:45:47;8.47;;;3.43;;
18526;SDS011;9393;42.158;24.748;2022-10-31T00:48:51;8.13;;;2.97;;
18526;SDS011;9393;42.158;24.748;2022-10-31T00:51:55;8.40;;;2.90;;
18526;SDS011;9393;42.158;24.748;2022-10-31T00:55:00;6.07;;;2.63;;
18526;SDS011;9393;42.158;24.748;2022-10-31T00:58:04;5.30;;;2.37;;
18526;SDS011;9393;42.158;24.748;2022-10-31T01:01:10;7.30;;;3.27;;
18526;SDS011;9393;42.158;24.748;2022-10-31T01:04:14;6.03;;;2.87;;
18526;SDS011;9393;42.158;24.748;2022-10-31T01:07:19;6.33;;;2.60;;
18526;SDS011;9393;42.158;24.748;2022-10-31T01:10:23;9.60;;;3.20;;
18526;SDS011;9393;42.158;24.748;2022-10-31T01:13:27;7.00;;;2.50;;
18526;SDS011;9393;42.158;24.748;2022-10-31T01:16:33;4.93;;;2.70;;
18526;SDS011;9393;42.158;24.748;2022-10-31T01:19:37;8.40;;;2.73;;
18526;SDS011;9393;42.158;24.748;2022-10-31T01:22:42;6.37;;;2.83;;
18526;SDS011;9393;42.158;24.748;2022-10-31T01:25:46;13.47;;;2.80;;
18526;SDS011;9393;42.158;24.748;2022-10-31T01:28:50;6.70;;;2.90;;
18526;SDS011;9393;42.158;24.748;2022-10-31T01:31:57;5.00;;;2.87;;
18526;SDS011;9393;42.158;24.748;2022-10-31T01:35:02;4.47;;;2.53;;
18526;SDS011;9393;42.158;24.748;2022-10-31T01:38:06;10.77;;;3.00;;
18526;SDS011;9393;42.158;24.748;2022-10-31T01:41:11;5.53;;;2.60;;
18526;SDS011;9393;42.158;24.748;2022-10-31T01:47:56;8.50;;;3.13;;
18526;SDS011;9393;42.158;24.748;2022-10-31T01:51:01;6.23;;;2.97;;
18526;SDS011;9393;42.158;24.748;2022-10-31T01:54:07;6.23;;;2.70;;
18526;SDS011;9393;42.158;24.748;2022-10-31T01:57:15;5.13;;;2.50;;
18526;SDS011;9393;42.158;24.748;2022-10-31T02:00:21;5.53;;;3.33;;
18526;SDS011;9393;42.158;24.748;2022-10-31T02:03:27;9.27;;;2.77;;
18526;SDS011;9393;42.158;24.748;2022-10-31T02:06:33;7.63;;;2.90;;
18526;SDS011;9393;42.158;24.748;2022-10-31T02:09:41;6.33;;;3.03;;
18526;SDS011;9393;42.158;24.748;2022-10-31T02:12:46;9.87;;;2.57;;
18526;SDS011;9393;42.158;24.748;2022-10-31T02:15:53;13.33;;;2.73;;
18526;SDS011;9393;42.158;24.748;2022-10-31T02:19:00;5.53;;;2.70;;
18526;SDS011;9393;42.158;24.748;2022-10-31T02:22:06;11.53;;;3.43;;
18526;SDS011;9393;42.158;24.748;2022-10-31T02:25:21;6.87;;;2.57;;
18526;SDS011;9393;42.158;24.748;2022-10-31T02:28:46;6.97;;;2.50;;
18526;SDS011;9393;42.158;24.748;2022-10-31T02:32:07;5.73;;;2.30;;
18526;SDS011;9393;42.158;24.748;2022-10-31T02:35:22;8.77;;;3.07;;
18526;SDS011;9393;42.158;24.748;2022-10-31T02:38:37;5.53;;;2.80;;
18526;SDS011;9393;42.158;24.748;2022-10-31T02:41:57;7.17;;;2.73;;
18526;SDS011;9393;42.158;24.748;2022-10-31T02:45:07;8.27;;;3.10;;
18526;SDS011;9393;42.158;24.748;2022-10-31T02:48:19;12.80;;;3.57;;
18526;SDS011;9393;42.158;24.748;2022-10-31T02:51:29;8.53;;;2.77;;
18526;SDS011;9393;42.158;24.748;2022-10-31T02:54:34;6.60;;;3.10;;
18526;SDS011;9393;42.158;24.748;2022-10-31T02:57:39;6.17;;;2.53;;
18526;SDS011;9393;42.158;24.748;2022-10-31T03:00:47;8.70;;;2.77;;
18526;SDS011;9393;42.158;24.748;2022-10-31T03:04:16;4.37;;;2.67;;
18526;SDS011;9393;42.158;24.748;2022-10-31T03:07:30;6.47;;;2.90;;
18526;SDS011;9393;42.158;24.748;2022-10-31T03:10:43;11.00;;;2.93;;
18526;SDS011;9393;42.158;24.748;2022-10-31T03:13:51;5.20;;;2.50;;
18526;SDS011;9393;42.158;24.748;2022-10-31T03:17:05;4.67;;;2.70;;
18526;SDS011;9393;42.158;24.748;2022-10-31T03:20:17;3.87;;;2.70;;
18526;SDS011;9393;42.158;24.748;2022-10-31T03:23:25;4.00;;;2.63;;
18526;SDS011;9393;42.158;24.748;2022-10-31T03:26:31;8.93;;;2.47;;
18526;SDS011;9393;42.158;24.748;2022-10-31T03:29:39;5.07;;;2.83;;
18526;SDS011;9393;42.158;24.748;2022-10-31T03:32:46;9.03;;;3.07;;
18526;SDS011;9393;42.158;24.748;2022-10-31T03:35:58;5.47;;;2.80;;
18526;SDS011;9393;42.158;24.748;2022-10-31T03:39:07;6.03;;;2.97;;
18526;SDS011;9393;42.158;24.748;2022-10-31T03:42:15;6.90;;;2.50;;
18526;SDS011;9393;42.158;24.748;2022-10-31T03:45:23;5.03;;;2.90;;
18526;SDS011;9393;42.158;24.748;2022-10-31T03:48:30;8.03;;;2.70;;
18526;SDS011;9393;42.158;24.748;2022-10-31T03:51:37;6.00;;;3.00;;
18526;SDS011;9393;42.158;24.748;2022-10-31T03:54:49;12.17;;;3.30;;
18526;SDS011;9393;42.158;24.748;2022-10-31T03:57:59;5.00;;;2.50;;
18526;SDS011;9393;42.158;24.748;2022-10-31T04:01:06;6.97;;;2.80;;
18526;SDS011;9393;42.158;24.748;2022-10-31T04:04:15;7.17;;;2.70;;
18526;SDS011;9393;42.158;24.748;2022-10-31T04:07:21;9.70;;;2.93;;
18526;SDS011;9393;42.158;24.748;2022-10-31T04:10:30;11.33;;;3.53;;
18526;SDS011;9393;42.158;24.748;2022-10-31T04:13:36;6.60;;;2.83;;
18526;SDS011;9393;42.158;24.748;2022-10-31T04:16:47;5.97;;;3.10;;
18526;SDS011;9393;42.158;24.748;2022-10-31T04:19:58;5.80;;;3.00;;
18526;SDS011;9393;42.158;24.748;2022-10-31T04:23:05;7.73;;;4.10;;
18526;SDS011;9393;42.158;24.748;2022-10-31T04:26:22;7.70;;;3.60;;
18526;SDS011;9393;42.158;24.748;2022-10-31T04:29:27;5.90;;;2.90;;
18526;SDS011;9393;42.158;24.748;2022-10-31T04:32:32;8.03;;;2.90;;
18526;SDS011;9393;42.158;24.748;2022-10-31T04:35:36;10.27;;;4.03;;
18526;SDS011;9393;42.158;24.748;2022-10-31T04:38:41;10.13;;;3.33;;
18526;SDS011;9393;42.158;24.748;2022-10-31T04:42:12;4.60;;;2.70;;
18526;SDS011;9393;42.158;24.748;2022-10-31T04:45:16;5.23;;;2.77;;
18526;SDS011;9393;42.158;24.748;2022-10-31T04:48:25;6.77;;;3.00;;
18526;SDS011;9393;42.158;24.748;2022-10-31T04:51:29;12.00;;;2.90;;
18526;SDS011;9393;42.158;24.748;2022-10-31T04:54:36;7.07;;;3.13;;
18526;SDS011;9393;42.158;24.748;2022-10-31T04:58:09;9.80;;;3.87;;
18526;SDS011;9393;42.158;24.748;2022-10-31T05:01:13;9.67;;;3.17;;
18526;SDS011;9393;42.158;24.748;2022-10-31T05:04:19;9.70;;;3.60;;
18526;SDS011;9393;42.158;24.748;2022-10-31T05:07:23;9.83;;;3.53;;
18526;SDS011;9393;42.158;24.748;2022-10-31T05:10:30;9.40;;;3.30;;
18526;SDS011;9393;42.158;24.748;2022-10-31T05:13:38;11.40;;;3.10;;
18526;SDS011;9393;42.158;24.748;2022-10-31T05:16:52;8.73;;;3.90;;
18526;SDS011;9393;42.158;24.748;2022-10-31T05:20:21;15.37;;;3.73;;
18526;SDS011;9393;42.158;24.748;2022-10-31T05:23:40;6.53;;;2.83;;
18526;SDS011;9393;42.158;24.748;2022-10-31T05:26:52;5.63;;;3.30;;
18526;SDS011;9393;42.158;24.748;2022-10-31T05:29:56;8.00;;;3.60;;
18526;SDS011;9393;42.158;24.748;2022-10-31T05:33:06;9.17;;;4.00;;
18526;SDS011;9393;42.158;24.748;2022-10-31T05:36:28;11.03;;;2.77;;
18526;SDS011;9393;42.158;24.748;2022-10-31T05:39:46;4.53;;;2.97;;
18526;SDS011;9393;42.158;24.748;2022-10-31T05:42:53;10.03;;;3.30;;
18526;SDS011;9393;42.158;24.748;2022-10-31T05:46:01;9.33;;;2.87;;
18526;SDS011;9393;42.158;24.748;2022-10-31T05:49:23;5.33;;;3.03;;
18526;SDS011;9393;42.158;24.748;2022-10-31T05:53:07;8.37;;;3.10;;
18526;SDS011;9393;42.158;24.748;2022-10-31T05:56:13;8.67;;;3.40;;
18526;SDS011;9393;42.158;24.748;2022-10-31T05:59:19;7.27;;;3.53;;
18526;SDS011;9393;42.158;24.748;2022-10-31T06:02:23;8.40;;;3.03;;
18526;SDS011;9393;42.158;24.748;2022-10-31T06:05:54;8.27;;;3.20;;
18526;SDS011;9393;42.158;24.748;2022-10-31T06:09:11;11.47;;;3.63;;
18526;SDS011;9393;42.158;24.748;2022-10-31T06:12:17;11.23;;;3.93;;
18526;SDS011;9393;42.158;24.748;2022-10-31T06:15:44;11.33;;;3.50;;
18526;SDS011;9393;42.158;24.748;2022-10-31T06:18:55;8.73;;;3.90;;
18526;SDS011;9393;42.158;24.748;2022-10-31T06:22:05;14.40;;;3.47;;
18526;SDS011;9393;42.158;24.748;2022-10-31T06:25:13;9.73;;;3.40;;
18526;SDS011;9393;42.158;24.748;2022-10-31T06:28:22;7.27;;;3.00;;
18526;SDS011;9393;42.158;24.748;2022-10-31T06:31:36;10.63;;;3.67;;
18526;SDS011;9393;42.158;24.748;2022-10-31T06:34:42;12.60;;;3.83;;
18526;SDS011;9393;42.158;24.748;2022-10-31T06:37:50;6.53;;;3.03;;
18526;SDS011;9393;42.158;24.748;2022-10-31T06:41:11;16.43;;;3.63;;
18526;SDS011;9393;42.158;24.748;2022-10-31T06:44:18;13.13;;;3.73;;
18526;SDS011;9393;42.158;24.748;2022-10-31T06:47:35;7.03;;;3.77;;
18526;SDS011;9393;42.158;24.748;2022-10-31T06:51:02;14.60;;;3.80;;
18526;SDS011;9393;42.158;24.748;2022-10-31T06:54:07;7.17;;;3.50;;
18526;SDS011;9393;42.158;24.748;2022-10-31T06:57:11;12.17;;;3.13;;
18526;SDS011;9393;42.158;24.748;2022-10-31T07:00:25;8.43;;;3.03;;
18526;SDS011;9393;42.158;24.748;2022-10-31T07:03:39;5.43;;;3.10;;
18526;SDS011;9393;42.158;24.748;2022-10-31T07:06:44;8.75;;;3.35;;
18526;SDS011;9393;42.158;24.748;2022-10-31T07:09:55;10.27;;;3.40;;
18526;SDS011;9393;42.158;24.748;2022-10-31T07:13:16;10.95;;;3.28;;
18526;SDS011;9393;42.158;24.748;2022-10-31T07:16:27;12.27;;;3.08;;
18526;SDS011;9393;42.158;24.748;2022-10-31T07:19:32;13.10;;;3.55;;
18526;SDS011;9393;42.158;24.748;2022-10-31T07:22:37;11.25;;;2.83;;
18526;SDS011;9393;42.158;24.748;2022-10-31T07:25:43;8.93;;;3.22;;
18526;SDS011;9393;42.158;24.748;2022-10-31T07:28:53;10.82;;;3.13;;
18526;SDS011;9393;42.158;24.748;2022-10-31T07:31:59;11.45;;;2.90;;
18526;SDS011;9393;42.158;24.748;2022-10-31T07:35:07;11.43;;;3.55;;
18526;SDS011;9393;42.158;24.748;2022-10-31T07:38:21;11.50;;;2.92;;
18526;SDS011;9393;42.158;24.748;2022-10-31T07:41:25;8.60;;;3.10;;
18526;SDS011;9393;42.158;24.748;2022-10-31T07:44:32;10.02;;;3.47;;
18526;SDS011;9393;42.158;24.748;2022-10-31T07:48:02;6.95;;;3.00;;
18526;SDS011;9393;42.158;24.748;2022-10-31T07:51:31;13.48;;;3.55;;
18526;SDS011;9393;42.158;24.748;2022-10-31T07:54:55;8.40;;;3.40;;
18526;SDS011;9393;42.158;24.748;2022-10-31T07:58:02;12.30;;;4.93;;
18526;SDS011;9393;42.158;24.748;2022-10-31T08:01:12;9.05;;;3.53;;
18526;SDS011;9393;42.158;24.748;2022-10-31T08:04:27;10.30;;;3.15;;
18526;SDS011;9393;42.158;24.748;2022-10-31T08:07:52;13.27;;;3.65;;
18526;SDS011;9393;42.158;24.748;2022-10-31T08:10:57;6.82;;;3.38;;
18526;SDS011;9393;42.158;24.748;2022-10-31T08:14:04;12.85;;;3.60;;
18526;SDS011;9393;42.158;24.748;2022-10-31T08:17:10;11.73;;;3.65;;
18526;SDS011;9393;42.158;24.748;2022-10-31T08:20:32;8.00;;;3.17;;
18526;SDS011;9393;42.158;24.748;2022-10-31T08:23:45;8.77;;;2.83;;
18526;SDS011;9393;42.158;24.748;2022-10-31T08:26:53;11.27;;;3.45;;
18526;SDS011;9393;42.158;24.748;2022-10-31T08:29:57;9.10;;;3.50;;
18526;SDS011;9393;42.158;24.748;2022-10-31T08:33:03;9.00;;;3.45;;
18526;SDS011;9393;42.158;24.748;2022-10-31T08:36:29;7.25;;;3.17;;
18526;SDS011;9393;42.158;24.748;2022-10-31T08:39:48;9.82;;;3.13;;
18526;SDS011;9393;42.158;24.748;2022-10-31T08:42:55;6.07;;;3.10;;
18526;SDS011;9393;42.158;24.748;2022-10-31T08:46:01;5.85;;;3.00;;
18526;SDS011;9393;42.158;24.748;2022-10-31T08:49:09;9.55;;;3.53;;
18526;SDS011;9393;42.158;24.748;2022-10-31T08:52:17;8.02;;;3.40;;
18526;SDS011;9393;42.158;24.748;2022-10-31T08:55:36;10.30;;;3.30;;
18526;SDS011;9393;42.158;24.748;2022-10-31T08:58:56;8.82;;;3.40;;
18526;SDS011;9393;42.158;24.748;2022-10-31T09:02:24;14.73;;;3.38;;
18526;SDS011;9393;42.158;24.748;2022-10-31T09:05:33;7.35;;;3.05;;
18526;SDS011;9393;42.158;24.748;2022-10-31T09:08:40;9.02;;;3.20;;
18526;SDS011;9393;42.158;24.748;2022-10-31T09:11:52;8.23;;;3.22;;
18526;SDS011;9393;42.158;24.748;2022-10-31T09:15:17;11.15;;;3.33;;
18526;SDS011;9393;42.158;24.748;2022-10-31T09:18:45;6.53;;;3.00;;
18526;SDS011;9393;42.158;24.748;2022-10-31T09:21:51;7.25;;;3.00;;
18526;SDS011;9393;42.158;24.748;2022-10-31T09:24:57;9.55;;;3.13;;
18526;SDS011;9393;42.158;24.748;2022-10-31T09:28:03;7.68;;;2.83;;
18526;SDS011;9393;42.158;24.748;2022-10-31T09:31:09;12.80;;;3.25;;
18526;SDS011;9393;42.158;24.748;2022-10-31T09:34:22;10.20;;;3.10;;
18526;SDS011;9393;42.158;24.748;2022-10-31T09:37:55;5.50;;;2.60;;
18526;SDS011;9393;42.158;24.748;2022-10-31T09:41:05;10.60;;;3.08;;
18526;SDS011;9393;42.158;24.748;2022-10-31T09:44:23;8.88;;;2.90;;
18526;SDS011;9393;42.158;24.748;2022-10-31T09:47:38;7.07;;;3.08;;
18526;SDS011;9393;42.158;24.748;2022-10-31T09:51:23;7.68;;;3.08;;
18526;SDS011;9393;42.158;24.748;2022-10-31T09:54:44;7.43;;;2.33;;
18526;SDS011;9393;42.158;24.748;2022-10-31T09:57:53;11.43;;;2.78;;
18526;SDS011;9393;42.158;24.748;2022-10-31T10:01:00;9.82;;;3.22;;
18526;SDS011;9393;42.158;24.748;2022-10-31T10:04:10;6.45;;;2.50;;
18526;SDS011;9393;42.158;24.748;2022-10-31T10:07:37;5.75;;;2.45;;
18526;SDS011;9393;42.158;24.748;2022-10-31T10:11:08;5.13;;;2.25;;
18526;SDS011;9393;42.158;24.748;2022-10-31T10:14:49;6.47;;;1.92;;
18526;SDS011;9393;42.158;24.748;2022-10-31T10:18:07;5.25;;;2.38;;
18526;SDS011;9393;42.158;24.748;2022-10-31T10:21:22;4.97;;;2.30;;
18526;SDS011;9393;42.158;24.748;2022-10-31T10:24:36;7.72;;;2.38;;
18526;SDS011;9393;42.158;24.748;2022-10-31T10:27:59;7.00;;;2.88;;
18526;SDS011;9393;42.158;24.748;2022-10-31T10:31:12;9.65;;;2.85;;
18526;SDS011;9393;42.158;24.748;2022-10-31T10:34:20;8.18;;;2.15;;
18526;SDS011;9393;42.158;24.748;2022-10-31T10:37:31;9.85;;;2.88;;
18526;SDS011;9393;42.158;24.748;2022-10-31T10:40:39;8.13;;;2.53;;
18526;SDS011;9393;42.158;24.748;2022-10-31T10:43:44;5.50;;;2.45;;
18526;SDS011;9393;42.158;24.748;2022-10-31T10:46:53;5.97;;;2.28;;
18526;SDS011;9393;42.158;24.748;2022-10-31T10:50:20;6.38;;;2.28;;
18526;SDS011;9393;42.158;24.748;2022-10-31T10:53:35;4.18;;;2.15;;
18526;SDS011;9393;42.158;24.748;2022-10-31T10:57:11;7.63;;;2.20;;
18526;SDS011;9393;42.158;24.748;2022-10-31T11:00:29;5.93;;;2.60;;
18526;SDS011;9393;42.158;24.748;2022-10-31T11:03:35;4.80;;;2.00;;
18526;SDS011;9393;42.158;24.748;2022-10-31T11:06:41;5.80;;;2.40;;
18526;SDS011;9393;42.158;24.748;2022-10-31T11:09:45;5.20;;;2.15;;
18526;SDS011;9393;42.158;24.748;2022-10-31T11:13:04;6.60;;;2.72;;
18526;SDS011;9393;42.158;24.748;2022-10-31T11:16:27;3.60;;;2.22;;
18526;SDS011;9393;42.158;24.748;2022-10-31T11:19:40;7.18;;;2.53;;
18526;SDS011;9393;42.158;24.748;2022-10-31T11:22:47;4.75;;;2.22;;
18526;SDS011;9393;42.158;24.748;2022-10-31T11:25:54;5.78;;;2.42;;
18526;SDS011;9393;42.158;24.748;2022-10-31T11:28:59;3.63;;;2.28;;
18526;SDS011;9393;42.158;24.748;2022-10-31T11:32:05;4.97;;;2.33;;
18526;SDS011;9393;42.158;24.748;2022-10-31T11:35:20;4.35;;;2.13;;
18526;SDS011;9393;42.158;24.748;2022-10-31T11:38:31;8.65;;;2.63;;
18526;SDS011;9393;42.158;24.748;2022-10-31T11:41:38;5.65;;;2.30;;
18526;SDS011;9393;42.158;24.748;2022-10-31T11:44:44;5.75;;;2.80;;
18526;SDS011;9393;42.158;24.748;2022-10-31T11:47:48;5.05;;;2.33;;
18526;SDS011;9393;42.158;24.748;2022-10-31T11:51:00;8.52;;;2.47;;
18526;SDS011;9393;42.158;24.748;2022-10-31T11:54:06;7.10;;;2.60;;
18526;SDS011;9393;42.158;24.748;2022-10-31T11:57:25;13.00;;;2.78;;
18526;SDS011;9393;42.158;24.748;2022-10-31T12:00:33;7.68;;;2.85;;
18526;SDS011;9393;42.158;24.748;2022-10-31T12:03:44;4.63;;;2.08;;
18526;SDS011;9393;42.158;24.748;2022-10-31T12:06:58;7.07;;;2.78;;
18526;SDS011;9393;42.158;24.748;2022-10-31T12:10:09;4.97;;;2.38;;
18526;SDS011;9393;42.158;24.748;2022-10-31T12:13:18;6.40;;;2.55;;
18526;SDS011;9393;42.158;24.748;2022-10-31T12:16:36;9.02;;;3.08;;
18526;SDS011;9393;42.158;24.748;2022-10-31T12:19:48;6.30;;;2.17;;
18526;SDS011;9393;42.158;24.748;2022-10-31T12:23:02;9.07;;;3.08;;
18526;SDS011;9393;42.158;24.748;2022-10-31T12:26:15;5.38;;;2.30;;
18526;SDS011;9393;42.158;24.748;2022-10-31T12:29:28;7.28;;;2.30;;
18526;SDS011;9393;42.158;24.748;2022-10-31T12:32:55;6.03;;;1.85;;
18526;SDS011;9393;42.158;24.748;2022-10-31T12:36:21;5.10;;;1.90;;
18526;SDS011;9393;42.158;24.748;2022-10-31T12:39:38;6.13;;;3.15;;
18526;SDS011;9393;42.158;24.748;2022-10-31T12:42:54;9.15;;;2.10;;
18526;SDS011;9393;42.158;24.748;2022-10-31T12:46:10;5.82;;;2.20;;
18526;SDS011;9393;42.158;24.748;2022-10-31T12:52:54;7.43;;;2.10;;
18526;SDS011;9393;42.158;24.748;2022-10-31T12:56:11;4.43;;;1.90;;
18526;SDS011;9393;42.158;24.748;2022-10-31T12:59:29;5.38;;;2.33;;
18526;SDS011;9393;42.158;24.748;2022-10-31T13:02:38;6.25;;;1.85;;
18526;SDS011;9393;42.158;24.748;2022-10-31T13:05:46;7.85;;;2.17;;
18526;SDS011;9393;42.158;24.748;2022-10-31T13:08:55;5.78;;;2.00;;
18526;SDS011;9393;42.158;24.748;2022-10-31T13:12:04;6.60;;;2.25;;
18526;SDS011;9393;42.158;24.748;2022-10-31T13:15:15;6.65;;;2.30;;
18526;SDS011;9393;42.158;24.748;2022-10-31T13:18:23;6.50;;;1.90;;
18526;SDS011;9393;42.158;24.748;2022-10-31T13:21:34;4.07;;;1.95;;
18526;SDS011;9393;42.158;24.748;2022-10-31T13:24:41;9.38;;;2.40;;
18526;SDS011;9393;42.158;24.748;2022-10-31T13:27:56;3.17;;;1.52;;
18526;SDS011;9393;42.158;24.748;2022-10-31T13:31:06;5.50;;;1.70;;
18526;SDS011;9393;42.158;24.748;2022-10-31T13:34:17;4.78;;;1.88;;
18526;SDS011;9393;42.158;24.748;2022-10-31T13:37:28;5.35;;;2.20;;
18526;SDS011;9393;42.158;24.748;2022-10-31T13:40:39;6.22;;;1.98;;
18526;SDS011;9393;42.158;24.748;2022-10-31T13:43:53;8.13;;;2.30;;
18526;SDS011;9393;42.158;24.748;2022-10-31T13:47:23;6.30;;;2.50;;
18526;SDS011;9393;42.158;24.748;2022-10-31T13:50:30;7.53;;;2.45;;
18526;SDS011;9393;42.158;24.748;2022-10-31T13:53:36;9.02;;;2.42;;
18526;SDS011;9393;42.158;24.748;2022-10-31T13:56:41;3.47;;;1.90;;
18526;SDS011;9393;42.158;24.748;2022-10-31T13:59:52;4.80;;;2.17;;
18526;SDS011;9393;42.158;24.748;2022-10-31T14:02:59;6.07;;;2.83;;
18526;SDS011;9393;42.158;24.748;2022-10-31T14:06:04;5.97;;;2.50;;
18526;SDS011;9393;42.158;24.748;2022-10-31T14:09:22;7.00;;;2.97;;
18526;SDS011;9393;42.158;24.748;2022-10-31T14:12:36;6.85;;;2.53;;
18526;SDS011;9393;42.158;24.748;2022-10-31T14:15:51;6.90;;;2.40;;
18526;SDS011;9393;42.158;24.748;2022-10-31T14:19:00;9.18;;;2.85;;
18526;SDS011;9393;42.158;24.748;2022-10-31T14:22:18;7.43;;;4.05;;
18526;SDS011;9393;42.158;24.748;2022-10-31T14:25:33;5.10;;;2.13;;
18526;SDS011;9393;42.158;24.748;2022-10-31T14:28:38;12.48;;;3.13;;
18526;SDS011;9393;42.158;24.748;2022-10-31T14:31:43;10.25;;;2.40;;
18526;SDS011;9393;42.158;24.748;2022-10-31T14:34:54;7.32;;;2.70;;
18526;SDS011;9393;42.158;24.748;2022-10-31T14:38:15;8.73;;;2.72;;
18526;SDS011;9393;42.158;24.748;2022-10-31T14:41:33;7.28;;;2.70;;
18526;SDS011;9393;42.158;24.748;2022-10-31T14:44:58;7.97;;;3.00;;
18526;SDS011;9393;42.158;24.748;2022-10-31T14:51:54;6.45;;;2.38;;
18526;SDS011;9393;42.158;24.748;2022-10-31T14:55:01;7.53;;;2.60;;
18526;SDS011;9393;42.158;24.748;2022-10-31T14:58:13;12.05;;;3.10;;
18526;SDS011;9393;42.158;24.748;2022-10-31T15:01:24;8.27;;;3.22;;
18526;SDS011;9393;42.158;24.748;2022-10-31T15:04:31;10.60;;;3.22;;
18526;SDS011;9393;42.158;24.748;2022-10-31T15:07:47;10.70;;;3.85;;
18526;SDS011;9393;42.158;24.748;2022-10-31T15:10:54;21.60;;;4.57;;
18526;SDS011;9393;42.158;24.748;2022-10-31T15:13:58;18.23;;;4.40;;
18526;SDS011;9393;42.158;24.748;2022-10-31T15:17:03;26.33;;;5.28;;
18526;SDS011;9393;42.158;24.748;2022-10-31T15:20:07;13.65;;;4.57;;
18526;SDS011;9393;42.158;24.748;2022-10-31T15:23:16;18.63;;;4.78;;
18526;SDS011;9393;42.158;24.748;2022-10-31T15:26:28;17.92;;;4.43;;
18526;SDS011;9393;42.158;24.748;2022-10-31T15:29:36;17.42;;;4.53;;
18526;SDS011;9393;42.158;24.748;2022-10-31T15:32:43;18.45;;;4.65;;
18526;SDS011;9393;42.158;24.748;2022-10-31T15:35:59;15.18;;;3.60;;
18526;SDS011;9393;42.158;24.748;2022-10-31T15:39:08;11.48;;;3.63;;
18526;SDS011;9393;42.158;24.748;2022-10-31T15:42:17;13.45;;;4.55;;
18526;SDS011;9393;42.158;24.748;2022-10-31T15:45:24;19.40;;;4.88;;
18526;SDS011;9393;42.158;24.748;2022-10-31T15:48:30;19.10;;;4.43;;
18526;SDS011;9393;42.158;24.748;2022-10-31T15:51:36;17.33;;;4.35;;
18526;SDS011;9393;42.158;24.748;2022-10-31T15:54:44;18.17;;;4.50;;
18526;SDS011;9393;42.158;24.748;2022-10-31T15:57:51;26.80;;;6.68;;
18526;SDS011;9393;42.158;24.748;2022-10-31T16:00:57;11.05;;;4.45;;
18526;SDS011;9393;42.158;24.748;2022-10-31T16:04:04;15.95;;;4.18;;
18526;SDS011;9393;42.158;24.748;2022-10-31T16:07:22;16.15;;;4.28;;
18526;SDS011;9393;42.158;24.748;2022-10-31T16:10:31;18.63;;;3.95;;
18526;SDS011;9393;42.158;24.748;2022-10-31T16:13:37;15.63;;;4.90;;
18526;SDS011;9393;42.158;24.748;2022-10-31T16:16:46;10.82;;;3.97;;
18526;SDS011;9393;42.158;24.748;2022-10-31T16:19:54;18.05;;;6.20;;
18526;SDS011;9393;42.158;24.748;2022-10-31T16:23:01;20.52;;;5.93;;
18526;SDS011;9393;42.158;24.748;2022-10-31T16:26:07;18.15;;;6.10;;
18526;SDS011;9393;42.158;24.748;2022-10-31T16:29:22;25.88;;;6.22;;
18526;SDS011;9393;42.158;24.748;2022-10-31T16:32:33;17.70;;;6.68;;
18526;SDS011;9393;42.158;24.748;2022-10-31T16:35:39;14.68;;;5.68;;
18526;SDS011;9393;42.158;24.748;2022-10-31T16:38:43;15.43;;;5.82;;
18526;SDS011;9393;42.158;24.748;2022-10-31T16:41:50;14.02;;;5.35;;
18526;SDS011;9393;42.158;24.748;2022-10-31T16:44:55;15.80;;;5.97;;
18526;SDS011;9393;42.158;24.748;2022-10-31T16:48:02;14.00;;;5.97;;
18526;SDS011;9393;42.158;24.748;2022-10-31T16:51:08;19.38;;;6.30;;
18526;SDS011;9393;42.158;24.748;2022-10-31T16:54:12;18.08;;;6.10;;
18526;SDS011;9393;42.158;24.748;2022-10-31T16:57:19;15.23;;;6.70;;
18526;SDS011;9393;42.158;24.748;2022-10-31T17:00:29;25.30;;;10.25;;
18526;SDS011;9393;42.158;24.748;2022-10-31T17:03:34;21.52;;;6.50;;
18526;SDS011;9393;42.158;24.748;2022-10-31T17:06:39;26.80;;;6.47;;
18526;SDS011;9393;42.158;24.748;2022-10-31T17:09:43;17.73;;;7.25;;
18526;SDS011;9393;42.158;24.748;2022-10-31T17:12:48;19.90;;;6.40;;
18526;SDS011;9393;42.158;24.748;2022-10-31T17:15:54;19.98;;;6.97;;
18526;SDS011;9393;42.158;24.748;2022-10-31T17:19:00;21.77;;;7.10;;
18526;SDS011;9393;42.158;24.748;2022-10-31T17:22:04;26.80;;;7.95;;
18526;SDS011;9393;42.158;24.748;2022-10-31T17:25:08;27.08;;;8.30;;
18526;SDS011;9393;42.158;24.748;2022-10-31T17:28:19;24.10;;;7.97;;
18526;SDS011;9393;42.158;24.748;2022-10-31T17:31:26;19.60;;;7.90;;
18526;SDS011;9393;42.158;24.748;2022-10-31T17:34:33;23.63;;;8.00;;
18526;SDS011;9393;42.158;24.748;2022-10-31T17:37:37;23.92;;;8.10;;
18526;SDS011;9393;42.158;24.748;2022-10-31T17:40:43;22.25;;;8.02;;
18526;SDS011;9393;42.158;24.748;2022-10-31T17:43:50;27.08;;;8.52;;
18526;SDS011;9393;42.158;24.748;2022-10-31T17:46:57;24.25;;;9.73;;
18526;SDS011;9393;42.158;24.748;2022-10-31T17:50:01;26.73;;;12.27;;
18526;SDS011;9393;42.158;24.748;2022-10-31T17:53:06;36.55;;;13.25;;
18526;SDS011;9393;42.158;24.748;2022-10-31T17:56:10;31.02;;;11.32;;
18526;SDS011;9393;42.158;24.748;2022-10-31T17:59:16;27.85;;;9.07;;
18526;SDS011;9393;42.158;24.748;2022-10-31T18:02:20;25.42;;;11.75;;
18526;SDS011;9393;42.158;24.748;2022-10-31T18:05:25;26.55;;;10.30;;
18526;SDS011;9393;42.158;24.748;2022-10-31T18:08:30;20.08;;;9.85;;
18526;SDS011;9393;42.158;24.748;2022-10-31T18:11:36;28.30;;;9.50;;
18526;SDS011;9393;42.158;24.748;2022-10-31T18:14:41;27.38;;;11.13;;
18526;SDS011;9393;42.158;24.748;2022-10-31T18:17:49;27.70;;;11.52;;
18526;SDS011;9393;42.158;24.748;2022-10-31T18:20:55;24.70;;;10.52;;
18526;SDS011;9393;42.158;24.748;2022-10-31T18:24:00;22.30;;;9.25;;
18526;SDS011;9393;42.158;24.748;2022-10-31T18:27:08;26.95;;;11.18;;
18526;SDS011;9393;42.158;24.748;2022-10-31T18:30:14;26.42;;;10.57;;
18526;SDS011;9393;42.158;24.748;2022-10-31T18:33:19;23.33;;;10.13;;
18526;SDS011;9393;42.158;24.748;2022-10-31T18:36:23;34.88;;;11.18;;
18526;SDS011;9393;42.158;24.748;2022-10-31T18:39:28;29.48;;;8.82;;
18526;SDS011;9393;42.158;24.748;2022-10-31T18:42:32;25.70;;;9.48;;
18526;SDS011;9393;42.158;24.748;2022-10-31T18:45:38;27.10;;;9.35;;
18526;SDS011;9393;42.158;24.748;2022-10-31T18:48:50;33.38;;;10.27;;
18526;SDS011;9393;42.158;24.748;2022-10-31T18:51:54;36.40;;;16.75;;
18526;SDS011;9393;42.158;24.748;2022-10-31T18:54:58;28.17;;;11.50;;
18526;SDS011;9393;42.158;24.748;2022-10-31T18:58:02;19.33;;;9.43;;
18526;SDS011;9393;42.158;24.748;2022-10-31T19:01:09;18.70;;;8.35;;
18526;SDS011;9393;42.158;24.748;2022-10-31T19:04:14;26.60;;;8.30;;
18526;SDS011;9393;42.158;24.748;2022-10-31T19:07:18;24.70;;;11.68;;
18526;SDS011;9393;42.158;24.748;2022-10-31T19:10:25;24.90;;;8.80;;
18526;SDS011;9393;42.158;24.748;2022-10-31T19:13:30;21.17;;;8.50;;